createdAt,value
2022-11-05T00:01:31.684Z,24.60
2022-11-05T00:03:57.951Z,24.57
2022-11-05T00:06:25.194Z,24.63
2022-11-05T00:08:50.608Z,24.63
2022-11-05T00:11:18.470Z,24.63
2022-11-05T00:13:43.296Z,24.62
2022-11-05T00:16:09.644Z,24.53
2022-11-05T00:18:35.973Z,24.57
2022-11-05T00:21:02.348Z,24.65
2022-11-05T00:23:28.684Z,24.77
2022-11-05T00:25:55.053Z,24.88
2022-11-05T00:28:21.395Z,24.61
2022-11-05T00:30:47.756Z,24.59
2022-11-05T00:33:14.093Z,24.56
2022-11-05T00:35:40.434Z,24.56
2022-11-05T00:38:06.764Z,24.56
2022-11-05T00:40:33.108Z,24.57
2022-11-05T00:42:59.443Z,24.54
2022-11-05T00:45:27.009Z,24.55
2022-11-05T00:47:52.142Z,24.55
2022-11-05T00:50:18.502Z,24.54
2022-11-05T00:52:44.864Z,24.54
2022-11-05T00:55:11.245Z,24.53
2022-11-05T00:57:37.584Z,24.52
2022-11-05T01:00:03.926Z,24.51
2022-11-05T01:02:30.416Z,24.52
2022-11-05T01:04:56.643Z,24.37
2022-11-05T01:07:22.979Z,24.54
2022-11-05T01:09:49.318Z,24.52
2022-11-05T01:12:15.690Z,24.52
2022-11-05T01:14:42.029Z,24.51
2022-11-05T01:17:08.372Z,24.51
2022-11-05T01:19:34.712Z,24.52
2022-11-05T01:22:01.050Z,24.52
2022-11-05T01:24:27.406Z,24.49
2022-11-05T01:26:53.751Z,24.49
2022-11-05T01:29:20.084Z,24.48
2022-11-05T01:31:46.435Z,24.44
2022-11-05T01:34:12.805Z,24.43
2022-11-05T01:36:39.140Z,24.43
2022-11-05T01:39:05.486Z,24.42
2022-11-05T01:41:31.855Z,24.41
2022-11-05T01:43:58.195Z,24.42
2022-11-05T01:46:24.532Z,24.41
2022-11-05T01:48:50.899Z,24.41
2022-11-05T01:51:17.211Z,24.40
2022-11-05T01:53:43.585Z,24.40
2022-11-05T01:56:09.917Z,24.41
2022-11-05T01:58:36.261Z,24.40
2022-11-05T02:01:02.662Z,24.40
2022-11-05T02:03:29.030Z,24.33
2022-11-05T02:05:55.361Z,24.33
2022-11-05T02:08:21.732Z,24.40
2022-11-05T02:10:48.060Z,24.39
2022-11-05T02:13:14.436Z,24.38
2022-11-05T02:15:40.769Z,24.39
2022-11-05T02:18:07.146Z,24.38
2022-11-05T02:20:33.486Z,24.39
2022-11-05T02:22:59.830Z,24.38
2022-11-05T02:25:26.210Z,24.37
2022-11-05T02:27:52.586Z,24.38
2022-11-05T02:30:19.024Z,24.36
2022-11-05T02:32:45.453Z,24.37
2022-11-05T02:35:12.151Z,24.38
2022-11-05T02:37:38.580Z,24.36
2022-11-05T02:40:05.024Z,24.36
2022-11-05T02:42:31.419Z,24.37
2022-11-05T02:44:57.858Z,24.36
2022-11-05T02:47:24.265Z,24.37
2022-11-05T02:49:50.695Z,24.37
2022-11-05T02:52:17.087Z,24.37
2022-11-05T02:54:43.534Z,24.34
2022-11-05T02:57:09.862Z,24.36
2022-11-05T02:59:36.194Z,24.34
2022-11-05T03:02:02.681Z,24.36
2022-11-05T03:04:28.924Z,24.34
2022-11-05T03:06:55.270Z,24.35
2022-11-05T03:09:21.621Z,24.35
2022-11-05T03:11:47.963Z,24.33
2022-11-05T03:14:14.333Z,24.30
2022-11-05T03:16:40.660Z,24.25
2022-11-05T03:19:07.026Z,24.18
2022-11-05T03:21:33.400Z,24.18
2022-11-05T03:23:59.739Z,24.32
2022-11-05T03:26:26.178Z,24.32
2022-11-05T03:28:52.531Z,24.32
2022-11-05T03:31:18.886Z,24.33
2022-11-05T03:33:45.229Z,24.32
2022-11-05T03:36:11.590Z,24.31
2022-11-05T03:38:37.929Z,24.30
2022-11-05T03:41:04.280Z,24.31
2022-11-05T03:43:30.619Z,24.32
2022-11-05T03:45:56.968Z,24.30
2022-11-05T03:48:23.386Z,24.30
2022-11-05T03:50:49.657Z,24.30
2022-11-05T03:53:16.019Z,24.30
2022-11-05T03:55:42.352Z,24.30
2022-11-05T03:58:08.728Z,24.30
2022-11-05T04:00:35.061Z,24.28
2022-11-05T04:03:01.455Z,24.29
2022-11-05T04:05:27.775Z,24.29
2022-11-05T04:07:54.112Z,24.28
2022-11-05T04:10:20.459Z,24.27
2022-11-05T04:12:46.833Z,24.27
2022-11-05T04:15:13.171Z,24.27
2022-11-05T04:17:39.532Z,24.27
2022-11-05T04:20:05.872Z,24.25
2022-11-05T04:22:32.202Z,24.25
2022-11-05T04:24:58.551Z,24.24
2022-11-05T04:27:24.893Z,24.25
2022-11-05T04:29:52.556Z,24.25
2022-11-05T04:32:17.608Z,24.24
2022-11-05T04:34:43.988Z,24.26
2022-11-05T04:37:10.353Z,24.24
2022-11-05T04:39:36.721Z,24.24
2022-11-05T04:42:03.059Z,24.24
2022-11-05T04:44:29.427Z,24.23
2022-11-05T04:46:55.759Z,24.24
2022-11-05T04:49:22.235Z,24.24
2022-11-05T04:51:48.555Z,24.23
2022-11-05T04:54:14.943Z,24.23
2022-11-05T04:56:41.280Z,24.21
2022-11-05T04:59:07.613Z,24.14
2022-11-05T05:01:34.094Z,24.14
2022-11-05T05:04:00.321Z,24.22
2022-11-05T05:06:26.662Z,24.21
2022-11-05T05:08:53.009Z,24.13
2022-11-05T05:11:19.379Z,24.13
2022-11-05T05:13:45.767Z,24.14
2022-11-05T05:16:12.094Z,24.14
2022-11-05T05:18:42.203Z,24.21
2022-11-05T05:21:04.780Z,24.21
2022-11-05T05:23:31.137Z,24.21
2022-11-05T05:25:57.463Z,24.21
2022-11-05T05:28:24.091Z,24.20
2022-11-05T05:30:53.599Z,24.20
2022-11-05T05:33:16.789Z,24.19
2022-11-05T05:35:43.128Z,24.20
2022-11-05T05:38:09.479Z,24.20
2022-11-05T05:40:35.813Z,24.19
2022-11-05T05:43:02.221Z,24.19
2022-11-05T05:45:28.596Z,24.19
2022-11-05T05:47:54.964Z,24.18
2022-11-05T05:50:21.333Z,24.19
2022-11-05T05:52:47.740Z,24.19
2022-11-05T05:55:14.052Z,24.19
2022-11-05T05:57:40.418Z,24.19
2022-11-05T06:00:06.759Z,24.20
2022-11-05T06:02:33.229Z,24.11
2022-11-05T06:05:00.663Z,24.11
2022-11-05T06:07:25.793Z,24.19
2022-11-05T06:09:52.139Z,24.19
2022-11-05T06:12:18.467Z,24.17
2022-11-05T06:14:44.822Z,24.18
2022-11-05T06:17:11.162Z,24.19
2022-11-05T06:19:37.510Z,24.17
2022-11-05T06:22:03.852Z,24.15
2022-11-05T06:24:30.189Z,24.13
2022-11-05T06:26:56.563Z,24.10
2022-11-05T06:29:22.909Z,24.09
2022-11-05T06:31:49.255Z,24.09
2022-11-05T06:34:15.589Z,24.09
2022-11-05T06:36:41.932Z,24.04
2022-11-05T06:39:08.366Z,24.05
2022-11-05T06:41:45.679Z,24.03
2022-11-05T06:44:01.015Z,24.08
2022-11-05T06:46:27.384Z,24.02
2022-11-05T06:48:53.760Z,24.03
2022-11-05T06:51:20.192Z,24.02
2022-11-05T06:53:46.549Z,24.03
2022-11-05T06:56:12.923Z,24.02
2022-11-05T06:58:39.263Z,24.02
2022-11-05T07:01:05.647Z,24.01
2022-11-05T07:03:31.976Z,24.05
2022-11-05T07:05:58.314Z,24.03
2022-11-05T07:08:24.690Z,24.01
2022-11-05T07:10:51.030Z,23.93
2022-11-05T07:13:17.473Z,23.93
2022-11-05T07:15:43.729Z,23.98
2022-11-05T07:18:10.076Z,23.98
2022-11-05T07:20:36.446Z,23.96
2022-11-05T07:23:03.771Z,23.96
2022-11-05T07:25:29.152Z,23.95
2022-11-05T07:27:55.499Z,23.96
2022-11-05T07:30:21.889Z,23.95
2022-11-05T07:32:48.229Z,23.95
2022-11-05T07:35:14.595Z,23.95
2022-11-05T07:37:40.942Z,23.93
2022-11-05T07:40:07.279Z,23.91
2022-11-05T07:42:33.657Z,23.95
2022-11-05T07:44:59.988Z,23.91
2022-11-05T07:47:26.338Z,23.95
2022-11-05T07:49:52.684Z,23.93
2022-11-05T07:52:19.052Z,23.92
2022-11-05T07:54:46.478Z,23.94
2022-11-05T07:57:11.725Z,23.98
2022-11-05T07:59:38.071Z,23.95
2022-11-05T08:02:04.552Z,23.93
2022-11-05T08:04:30.777Z,23.93
2022-11-05T08:06:57.136Z,23.92
2022-11-05T08:09:23.481Z,23.93
2022-11-05T08:11:52.968Z,23.94
2022-11-05T08:14:16.222Z,23.94
2022-11-05T08:16:42.537Z,23.97
2022-11-05T08:19:08.875Z,23.97
2022-11-05T08:21:35.225Z,24.02
2022-11-05T08:34:33.604Z,24.02
2022-11-05T08:37:00.078Z,24.01
2022-11-05T08:39:26.960Z,24.02
2022-11-05T08:41:53.370Z,24.02
2022-11-05T08:44:19.826Z,23.96
2022-11-05T08:46:46.232Z,24.01
2022-11-05T08:49:17.856Z,24.00
2022-11-05T08:51:44.360Z,24.03
2022-11-05T08:54:10.798Z,24.04
2022-11-05T08:56:37.260Z,24.05
2022-11-05T08:59:03.678Z,24.05
2022-11-05T09:01:30.301Z,24.04
2022-11-05T09:03:56.576Z,24.05
2022-11-05T09:06:23.056Z,24.10
2022-11-05T09:08:49.658Z,24.10
2022-11-05T09:11:16.088Z,24.09
2022-11-05T09:13:42.590Z,24.09
2022-11-05T09:16:11.405Z,24.10
2022-11-05T09:18:45.258Z,24.12
2022-11-05T09:21:12.216Z,24.19
2022-11-05T09:23:51.855Z,24.14
2022-11-05T09:26:16.135Z,24.13
2022-11-05T09:28:42.674Z,24.19
2022-11-05T09:31:09.502Z,24.21
2022-11-05T09:33:36.631Z,24.20
2022-11-05T09:36:04.776Z,24.19
2022-11-05T09:38:31.771Z,24.18
2022-11-05T09:40:58.716Z,24.19
2022-11-05T09:43:31.221Z,24.18
2022-11-05T09:45:51.580Z,24.20
2022-11-05T09:48:21.208Z,24.23
2022-11-05T09:50:47.792Z,24.28
2022-11-05T09:53:14.774Z,24.28
2022-11-05T09:55:43.052Z,24.27
2022-11-05T09:58:10.507Z,24.27
2022-11-05T10:00:39.459Z,24.26
2022-11-05T10:03:06.445Z,24.28
2022-11-05T10:05:32.991Z,24.29
2022-11-05T10:08:00.133Z,24.30
2022-11-05T10:10:28.101Z,24.32
2022-11-05T10:12:55.356Z,24.33
2022-11-05T10:15:22.313Z,24.33
2022-11-05T10:17:49.428Z,24.34
2022-11-05T10:20:16.165Z,24.36
2022-11-05T10:22:49.670Z,24.36
2022-11-05T10:25:15.787Z,24.37
2022-11-05T10:30:27.716Z,24.39
2022-11-05T10:32:54.092Z,24.39
2022-11-05T10:35:20.523Z,24.37
2022-11-05T10:37:46.974Z,24.40
2022-11-05T10:40:13.430Z,24.39
2022-11-05T10:42:39.846Z,24.40
2022-11-05T10:45:06.683Z,24.39
2022-11-05T10:47:33.376Z,24.44
2022-11-05T10:49:59.780Z,24.40
2022-11-05T10:52:26.706Z,24.40
2022-11-05T10:54:53.199Z,24.42
2022-11-05T10:57:19.621Z,24.45
2022-11-05T10:59:46.069Z,24.46
2022-11-05T11:02:12.523Z,24.48
2022-11-05T11:04:38.940Z,24.50
2022-11-05T11:07:05.365Z,24.49
2022-11-05T11:09:32.306Z,24.47
2022-11-05T11:11:58.759Z,24.52
2022-11-05T11:14:25.167Z,24.55
2022-11-05T11:16:53.364Z,24.51
2022-11-05T11:19:21.162Z,24.52
2022-11-05T11:21:50.959Z,24.52
2022-11-05T11:24:17.614Z,24.50
2022-11-05T11:26:44.606Z,24.55
2022-11-05T11:29:11.107Z,24.53
2022-11-05T11:31:37.580Z,24.54
2022-11-05T11:34:04.016Z,24.53
2022-11-05T11:36:30.467Z,24.52
2022-11-05T11:39:00.730Z,24.53
2022-11-05T11:41:27.171Z,24.53
2022-11-05T11:43:53.580Z,24.52
2022-11-05T11:46:20.385Z,24.51
2022-11-05T11:48:46.832Z,24.51
2022-11-05T11:51:15.598Z,24.53
2022-11-05T11:53:42.024Z,24.51
2022-11-05T11:56:08.489Z,24.51
2022-11-05T11:58:36.335Z,24.51
2022-11-05T12:03:48.753Z,24.52
2022-11-05T12:06:19.356Z,24.50
2022-11-05T12:08:47.032Z,24.49
2022-11-05T12:11:12.558Z,24.52
2022-11-05T12:13:39.032Z,24.48
2022-11-05T12:16:06.193Z,24.51
2022-11-05T12:18:32.820Z,24.50
2022-11-05T12:21:01.174Z,24.50
2022-11-05T12:23:40.403Z,24.47
2022-11-05T12:26:05.685Z,24.48
2022-11-05T12:28:57.739Z,24.48
2022-11-05T12:31:07.844Z,24.48
2022-11-05T12:33:32.256Z,24.48
2022-11-05T12:36:06.380Z,24.52
2022-11-05T12:38:31.692Z,24.47
2022-11-05T12:40:58.532Z,24.47
2022-11-05T12:43:25.069Z,24.50
2022-11-05T12:45:52.322Z,24.49
2022-11-05T12:48:24.691Z,24.49
2022-11-05T12:50:46.158Z,24.46
2022-11-05T12:53:12.871Z,24.50
2022-11-05T12:55:47.070Z,24.47
2022-11-05T12:58:09.505Z,24.47
2022-11-05T13:00:37.170Z,24.46
2022-11-05T13:03:04.830Z,24.46
2022-11-05T13:05:33.761Z,24.46
2022-11-05T13:07:58.909Z,24.45
2022-11-05T13:10:25.367Z,24.45
2022-11-05T13:12:52.870Z,24.44
2022-11-05T13:15:19.674Z,24.44
2022-11-05T13:17:48.142Z,24.44
2022-11-05T13:23:01.115Z,24.42
2022-11-05T13:25:32.340Z,24.42
2022-11-05T13:28:06.567Z,24.42
2022-11-05T13:30:33.036Z,24.41
2022-11-05T13:32:59.579Z,24.42
2022-11-05T13:35:26.012Z,24.40
2022-11-05T13:37:52.478Z,24.39
2022-11-05T13:40:18.896Z,24.42
2022-11-05T13:42:45.368Z,24.42
2022-11-05T13:45:12.072Z,24.41
2022-11-05T13:47:38.593Z,24.36
2022-11-05T13:50:05.053Z,24.36
2022-11-05T13:52:31.811Z,24.37
2022-11-05T13:54:58.279Z,24.37
2022-11-05T13:57:24.685Z,24.39
2022-11-05T13:59:51.188Z,24.38
2022-11-05T14:02:18.739Z,24.36
2022-11-05T14:04:45.068Z,24.36
2022-11-05T14:07:11.520Z,24.38
2022-11-05T14:09:38.106Z,24.36
2022-11-05T14:12:05.004Z,24.32
2022-11-05T14:14:32.049Z,24.36
2022-11-05T14:17:01.848Z,24.32
2022-11-05T14:19:29.841Z,24.35
2022-11-05T14:22:07.088Z,24.33
2022-11-05T14:24:35.259Z,24.14
2022-11-05T14:27:05.138Z,24.31
2022-11-05T14:29:33.002Z,24.32
2022-11-05T14:32:09.561Z,24.32
2022-11-05T14:34:33.201Z,24.36
2022-11-05T14:36:59.638Z,24.32
2022-11-05T14:39:26.094Z,24.32
2022-11-05T14:41:52.567Z,24.31
2022-11-05T14:44:20.914Z,24.14
2022-11-05T14:46:47.418Z,24.14
2022-11-05T14:49:13.869Z,24.28
2022-11-05T14:51:40.308Z,24.24
2022-11-05T14:54:09.460Z,24.24
2022-11-05T14:56:35.932Z,24.24
2022-11-05T14:59:03.431Z,24.21
2022-11-05T15:01:30.068Z,24.20
2022-11-05T15:03:56.499Z,24.22
2022-11-05T15:06:22.813Z,24.18
2022-11-05T15:08:49.268Z,24.27
2022-11-05T15:11:15.680Z,24.28
2022-11-05T15:13:42.188Z,24.30
2022-11-05T15:16:09.610Z,24.30
2022-11-05T15:18:43.176Z,24.23
2022-11-05T15:21:09.768Z,24.23
2022-11-05T15:23:36.533Z,24.31
2022-11-05T15:26:03.582Z,24.33
2022-11-05T15:28:32.550Z,24.22
2022-11-05T15:30:58.990Z,24.34
2022-11-05T15:33:25.444Z,24.32
2022-11-05T15:35:51.846Z,24.34
2022-11-05T15:38:18.299Z,24.26
2022-11-05T15:40:44.746Z,24.26
2022-11-05T15:43:11.606Z,24.34
2022-11-05T15:45:37.840Z,24.33
2022-11-05T15:48:04.246Z,24.33
2022-11-05T15:50:31.879Z,24.33
2022-11-05T15:53:14.439Z,24.32
2022-11-05T15:55:24.742Z,24.32
2022-11-05T15:57:51.588Z,24.34
2022-11-05T16:00:17.736Z,24.33
2022-11-05T16:02:44.811Z,24.33
2022-11-05T16:05:11.204Z,24.30
2022-11-05T16:07:39.252Z,24.30
2022-11-05T16:10:12.528Z,24.30
2022-11-05T16:12:32.644Z,24.30
2022-11-05T16:14:59.067Z,24.30
2022-11-05T16:17:27.873Z,24.29
2022-11-05T16:19:55.606Z,24.30
2022-11-05T16:22:29.529Z,24.28
2022-11-05T16:24:53.261Z,24.29
2022-11-05T16:30:05.265Z,24.30
2022-11-05T16:32:31.901Z,24.30
2022-11-05T16:34:58.091Z,24.29
2022-11-05T16:37:26.114Z,24.30
2022-11-05T16:39:52.524Z,24.30
2022-11-05T16:42:18.969Z,24.29
2022-11-05T16:44:45.380Z,24.29
2022-11-05T16:47:11.827Z,24.29
2022-11-05T16:49:40.440Z,24.28
2022-11-05T16:52:04.813Z,24.27
2022-11-05T16:54:31.264Z,24.28
2022-11-05T16:56:57.716Z,24.27
2022-11-05T16:59:24.185Z,24.27
2022-11-05T17:01:55.657Z,24.27
2022-11-05T17:04:17.381Z,24.26
2022-11-05T17:06:43.854Z,24.26
2022-11-05T17:09:10.308Z,24.25
2022-11-05T17:11:37.375Z,24.26
2022-11-05T17:14:03.847Z,24.25
2022-11-05T17:16:30.587Z,24.25
2022-11-05T17:18:57.258Z,24.26
2022-11-05T17:21:23.891Z,24.25
2022-11-05T17:23:53.111Z,24.25
2022-11-05T17:26:22.666Z,24.25
2022-11-05T17:28:51.011Z,24.23
2022-11-05T17:31:17.963Z,24.23
2022-11-05T17:33:44.359Z,24.23
2022-11-05T17:36:12.034Z,24.25
2022-11-05T17:38:37.359Z,24.24
2022-11-05T17:41:03.818Z,24.23
2022-11-05T17:43:30.225Z,24.22
2022-11-05T17:46:03.117Z,24.22
2022-11-05T17:48:23.173Z,24.23
2022-11-05T17:50:49.596Z,24.22
2022-11-05T17:53:18.842Z,24.22
2022-11-05T17:55:45.249Z,24.22
2022-11-05T17:58:13.615Z,24.22
2022-11-05T18:00:53.383Z,24.21
2022-11-05T18:03:20.022Z,24.22
2022-11-05T18:05:46.457Z,24.21
2022-11-05T18:08:12.910Z,24.20
2022-11-05T18:10:39.691Z,24.20
2022-11-05T18:13:07.975Z,24.20
2022-11-05T18:15:39.611Z,24.20
2022-11-05T18:18:12.116Z,24.20
2022-11-05T18:20:38.639Z,24.18
2022-11-05T18:23:10.810Z,24.18
2022-11-05T18:25:37.059Z,24.18
2022-11-05T18:28:05.107Z,24.18
2022-11-05T18:30:30.551Z,24.18
2022-11-05T18:32:57.931Z,24.19
2022-11-05T18:35:23.451Z,24.18
2022-11-05T18:37:49.910Z,24.17
2022-11-05T18:40:16.363Z,24.17
2022-11-05T18:42:42.771Z,24.17
2022-11-05T18:45:09.220Z,24.16
2022-11-05T18:47:35.690Z,24.16
2022-11-05T18:50:03.314Z,24.17
2022-11-05T18:52:28.507Z,24.17
2022-11-05T18:54:54.963Z,24.16
2022-11-05T18:57:21.418Z,24.16
2022-11-05T18:59:47.868Z,24.16
2022-11-05T19:02:20.302Z,24.16
2022-11-05T19:05:13.841Z,24.16
2022-11-05T19:07:14.249Z,24.15
2022-11-05T19:09:40.656Z,24.15
2022-11-05T19:12:07.099Z,24.14
2022-11-05T19:14:33.531Z,24.13
2022-11-05T19:17:03.750Z,24.14
2022-11-05T19:19:32.171Z,24.14
2022-11-05T19:21:57.289Z,24.14
2022-11-05T19:24:34.461Z,24.13
2022-11-05T19:27:02.403Z,24.14
2022-11-05T19:29:46.205Z,24.13
2022-11-05T19:32:19.136Z,24.14
2022-11-05T19:34:40.112Z,24.12
2022-11-05T19:38:15.434Z,24.13
2022-11-05T19:39:41.232Z,24.11
2022-11-05T19:42:06.094Z,24.12
2022-11-05T19:44:41.444Z,24.12
2022-11-05T19:47:07.926Z,24.13
2022-11-05T19:49:39.344Z,24.12
2022-11-05T19:52:04.120Z,24.12
2022-11-05T19:54:30.703Z,24.11
2022-11-05T19:56:57.193Z,24.12
2022-11-05T19:59:23.713Z,24.10
2022-11-05T20:01:51.495Z,24.12
2022-11-05T20:04:18.038Z,24.12
2022-11-05T20:06:47.393Z,24.13
2022-11-05T20:09:23.568Z,24.13
2022-11-05T20:11:55.585Z,24.13
2022-11-05T20:14:22.416Z,24.13
2022-11-05T20:16:50.017Z,24.14
2022-11-05T20:19:20.434Z,24.14
2022-11-05T20:21:40.980Z,24.14
2022-11-05T20:24:10.764Z,24.15
2022-11-05T20:26:39.600Z,24.13
2022-11-05T20:29:16.877Z,24.11
2022-11-05T20:34:24.128Z,24.11
2022-11-05T20:36:53.439Z,24.11
2022-11-05T20:39:21.440Z,24.11
2022-11-05T20:41:49.695Z,24.13
2022-11-05T20:44:17.045Z,24.13
2022-11-05T20:46:47.238Z,24.10
2022-11-05T20:49:27.566Z,24.11
2022-11-05T20:52:02.832Z,24.09
2022-11-05T20:54:23.469Z,24.10
2022-11-05T20:56:53.441Z,24.10
2022-11-05T21:02:07.176Z,24.10
2022-11-05T21:04:38.615Z,24.08
2022-11-05T21:07:09.089Z,24.10
2022-11-05T21:09:38.434Z,24.09
2022-11-05T21:12:10.505Z,24.08
2022-11-05T21:14:46.026Z,24.09
2022-11-05T21:19:58.224Z,24.07
2022-11-05T21:22:26.941Z,24.07
2022-11-05T21:24:54.928Z,24.08
2022-11-05T21:27:20.697Z,24.08
2022-11-05T21:29:47.380Z,24.07
2022-11-05T21:32:14.094Z,24.07
2022-11-05T21:37:31.629Z,24.08
2022-11-05T21:39:58.616Z,24.07
2022-11-05T21:42:25.587Z,24.07
2022-11-05T21:44:57.675Z,24.05
2022-11-05T21:47:21.083Z,23.97
2022-11-05T21:49:48.023Z,23.97
2022-11-05T21:52:13.376Z,24.07
2022-11-05T21:54:40.437Z,24.04
2022-11-05T21:57:10.836Z,24.04
2022-11-05T21:59:37.054Z,24.06
2022-11-05T22:02:21.406Z,24.05
2022-11-05T22:04:47.823Z,24.06
2022-11-05T22:07:14.559Z,24.06
2022-11-05T22:09:43.376Z,24.07
2022-11-05T22:12:10.900Z,24.07
2022-11-05T22:14:37.694Z,24.07
2022-11-05T22:17:05.477Z,24.05
2022-11-05T22:19:34.455Z,24.05
2022-11-05T22:22:07.621Z,24.04
2022-11-05T22:24:35.577Z,24.05
2022-11-05T22:27:02.639Z,24.04
2022-11-05T22:29:32.086Z,24.05
2022-11-05T22:31:56.244Z,24.04
2022-11-05T22:34:22.687Z,23.99
2022-11-05T22:36:50.594Z,24.04
2022-11-05T22:39:37.371Z,24.03
2022-11-05T22:42:08.486Z,24.03
2022-11-05T22:44:37.930Z,24.02
2022-11-05T22:47:03.128Z,24.03
2022-11-05T22:49:29.613Z,24.02
2022-11-05T22:51:56.078Z,24.01
2022-11-05T22:54:22.909Z,24.03
2022-11-05T22:56:55.395Z,24.03
2022-11-05T22:59:53.011Z,24.01
2022-11-05T23:01:50.769Z,24.02
2022-11-05T23:04:17.692Z,24.02
2022-11-05T23:06:46.872Z,24.01
2022-11-05T23:09:18.303Z,24.00
2022-11-05T23:11:41.420Z,24.01
2022-11-05T23:14:14.095Z,24.02
2022-11-05T23:16:46.416Z,24.02
2022-11-05T23:19:11.824Z,24.01
2022-11-05T23:21:42.766Z,24.03
2022-11-05T23:24:11.111Z,24.01
2022-11-05T23:26:39.133Z,24.02
2022-11-05T23:29:06.053Z,24.03
2022-11-05T23:31:39.175Z,24.03
2022-11-05T23:34:07.066Z,24.02
2022-11-05T23:36:36.524Z,24.03
2022-11-05T23:39:09.257Z,24.02
2022-11-05T23:41:41.988Z,24.02
2022-11-05T23:44:08.594Z,24.02
2022-11-05T23:46:35.106Z,24.01
2022-11-05T23:49:01.903Z,24.00
2022-11-05T23:51:32.155Z,23.98
2022-11-05T23:54:03.382Z,23.99
2022-11-05T23:56:32.630Z,24.02
2022-11-05T23:58:59.481Z,24.02
